createdAt,value
2023-11-18T00:00:37.787Z,29.67
2023-11-18T00:03:09.777Z,29.70
2023-11-18T00:05:39.464Z,29.68
2023-11-18T00:08:08.212Z,29.69
2023-11-18T00:10:38.236Z,29.68
2023-11-18T00:13:07.955Z,29.68
2023-11-18T00:15:37.722Z,29.69
2023-11-18T00:18:09.168Z,29.70
2023-11-18T00:20:39.096Z,29.72
2023-11-18T00:23:08.789Z,29.74
2023-11-18T00:25:41.263Z,29.75
2023-11-18T00:28:11.024Z,29.76
2023-11-18T00:30:40.908Z,29.77
2023-11-18T00:33:13.279Z,29.79
2023-11-18T00:35:42.996Z,29.79
2023-11-18T00:38:13.199Z,29.77
2023-11-18T00:40:43.126Z,29.75
2023-11-18T00:43:13.082Z,29.70
2023-11-18T00:45:45.014Z,29.67
2023-11-18T00:48:17.518Z,29.65
2023-11-18T00:50:47.531Z,29.63
2023-11-18T00:53:17.237Z,29.61
2023-11-18T00:55:46.993Z,29.59
2023-11-18T00:58:16.954Z,29.59
2023-11-18T01:00:46.655Z,29.57
2023-11-18T01:03:18.587Z,29.58
2023-11-18T01:05:48.553Z,29.59
2023-11-18T01:08:18.848Z,29.60
2023-11-18T01:10:48.728Z,29.61
2023-11-18T01:13:18.381Z,29.62
2023-11-18T01:15:49.100Z,29.63
2023-11-18T01:18:20.568Z,29.63
2023-11-18T01:20:50.162Z,29.59
2023-11-18T01:23:19.795Z,29.54
2023-11-18T01:25:52.629Z,29.51
2023-11-18T01:28:22.605Z,29.49
2023-11-18T01:30:52.664Z,29.49
2023-11-18T01:33:25.593Z,29.48
2023-11-18T01:35:56.454Z,29.46
2023-11-18T01:38:27.741Z,29.42
2023-11-18T01:40:57.293Z,29.39
2023-11-18T01:43:27.114Z,29.38
2023-11-18T01:45:57.942Z,29.38
2023-11-18T01:48:32.326Z,29.37
2023-11-18T01:51:04.850Z,29.34
2023-11-18T01:53:36.708Z,29.30
2023-11-18T01:56:07.788Z,29.25
2023-11-18T01:58:38.732Z,29.24
2023-11-18T02:01:10.003Z,29.24
2023-11-18T02:03:44.255Z,29.25
2023-11-18T02:06:17.323Z,29.25
2023-11-18T02:08:47.288Z,29.26
2023-11-18T02:11:33.888Z,29.29
2023-11-18T02:14:12.326Z,29.29
2023-11-18T02:16:55.776Z,29.29
2023-11-18T02:19:29.749Z,29.29
2023-11-18T02:22:01.011Z,29.31
2023-11-18T02:24:32.384Z,29.31
2023-11-18T02:27:04.463Z,29.32
2023-11-18T02:29:38.648Z,29.33
2023-11-18T02:32:18.315Z,29.32
2023-11-18T02:34:57.096Z,29.31
2023-11-18T02:37:28.967Z,29.30
2023-11-18T02:40:09.844Z,29.30
2023-11-18T02:42:44.004Z,29.28
2023-11-18T02:45:18.704Z,29.26
2023-11-18T02:47:49.186Z,29.25
2023-11-18T02:50:20.978Z,29.25
2023-11-18T02:52:50.226Z,29.25
2023-11-18T02:55:20.156Z,29.27
2023-11-18T02:58:04.505Z,29.28
2023-11-18T03:00:35.038Z,29.27
2023-11-18T03:03:04.667Z,29.26
2023-11-18T03:05:34.603Z,29.26
2023-11-18T03:08:07.665Z,29.27
2023-11-18T03:10:38.850Z,29.27
2023-11-18T03:13:10.402Z,29.29
2023-11-18T03:15:40.095Z,29.29
2023-11-18T03:18:10.147Z,29.31
2023-11-18T03:20:39.945Z,29.31
2023-11-18T03:23:10.709Z,29.31
2023-11-18T03:25:40.801Z,29.31
2023-11-18T03:28:12.558Z,29.32
2023-11-18T03:30:43.594Z,29.32
2023-11-18T03:33:13.317Z,29.32
2023-11-18T03:35:43.331Z,29.33
2023-11-18T03:38:14.449Z,29.32
2023-11-18T03:40:46.655Z,29.31
2023-11-18T03:43:18.306Z,29.31
2023-11-18T03:45:48.277Z,29.28
2023-11-18T03:48:20.045Z,29.27
2023-11-18T03:50:50.089Z,29.25
2023-11-18T03:53:19.661Z,29.24
2023-11-18T03:55:49.607Z,29.25
2023-11-18T03:58:20.720Z,29.24
2023-11-18T04:00:50.837Z,29.23
2023-11-18T04:03:20.661Z,29.24
2023-11-18T04:05:50.694Z,29.23
2023-11-18T04:11:04.837Z,29.22
2023-11-18T04:13:36.420Z,29.21
2023-11-18T04:16:07.523Z,29.20
2023-11-18T04:18:37.215Z,29.21
2023-11-18T04:21:08.108Z,29.20
2023-11-18T04:23:37.870Z,29.19
2023-11-18T04:26:08.800Z,29.19
2023-11-18T04:28:40.428Z,29.19
2023-11-18T04:31:10.642Z,29.17
2023-11-18T04:33:41.980Z,29.12
2023-11-18T04:36:15.027Z,29.06
2023-11-18T04:38:45.367Z,29.01
2023-11-18T04:41:15.050Z,29.00
2023-11-18T04:43:46.402Z,28.99
2023-11-18T04:46:16.399Z,28.99
2023-11-18T04:48:46.746Z,28.98
2023-11-18T04:51:16.388Z,29.01
2023-11-18T04:53:46.611Z,29.04
2023-11-18T04:56:18.291Z,29.07
2023-11-18T04:58:50.243Z,29.12
2023-11-18T05:01:19.989Z,29.18
2023-11-18T05:03:49.749Z,29.22
2023-11-18T05:06:21.570Z,29.28
2023-11-18T05:08:51.501Z,29.35
2023-11-18T05:11:22.413Z,29.39
2023-11-18T05:13:55.322Z,29.46
2023-11-18T05:16:25.406Z,29.48
2023-11-18T05:18:55.109Z,29.52
2023-11-18T05:21:25.719Z,29.55
2023-11-18T05:23:55.259Z,29.53
2023-11-18T05:26:25.419Z,29.52
2023-11-18T05:28:57.275Z,29.52
2023-11-18T05:31:31.104Z,29.53
2023-11-18T05:34:01.062Z,29.55
2023-11-18T05:36:38.739Z,29.59
2023-11-18T05:39:11.652Z,29.62
2023-11-18T05:41:47.401Z,29.66
2023-11-18T05:44:21.138Z,29.69
2023-11-18T05:46:53.305Z,29.74
2023-11-18T05:49:27.752Z,29.78
2023-11-18T05:51:57.804Z,29.88
2023-11-18T05:54:28.066Z,29.97
2023-11-18T05:57:00.954Z,30.08
2023-11-18T05:59:40.750Z,30.18
2023-11-18T06:02:14.699Z,30.28
2023-11-18T06:04:44.531Z,30.40
2023-11-18T06:07:15.151Z,30.49
2023-11-18T06:09:47.093Z,30.59
2023-11-18T06:12:19.158Z,30.71
2023-11-18T06:14:53.055Z,30.82
2023-11-18T06:17:23.414Z,30.91
2023-11-18T06:19:53.439Z,31.02
2023-11-18T06:22:25.789Z,31.12
2023-11-18T06:24:56.070Z,31.21
2023-11-18T06:27:25.977Z,31.33
2023-11-18T06:29:56.993Z,31.42
2023-11-18T06:32:27.540Z,31.52
2023-11-18T06:34:57.258Z,31.63
2023-11-18T06:37:28.755Z,31.71
2023-11-18T06:39:58.429Z,31.77
2023-11-18T06:42:28.011Z,31.79
2023-11-18T06:44:59.513Z,31.84
2023-11-18T06:47:29.289Z,31.89
2023-11-18T06:49:59.067Z,31.93
2023-11-18T06:52:29.597Z,32.01
2023-11-18T06:54:59.248Z,32.08
2023-11-18T06:57:29.019Z,32.16
2023-11-18T07:00:09.490Z,32.24
2023-11-18T07:02:38.985Z,32.30
2023-11-18T07:05:09.273Z,32.35
2023-11-18T07:07:39.256Z,32.39
2023-11-18T07:10:14.403Z,32.41
2023-11-18T07:12:44.229Z,32.44
2023-11-18T07:15:15.406Z,32.43
2023-11-18T07:17:45.648Z,32.42
2023-11-18T07:20:15.671Z,32.41
2023-11-18T07:22:45.399Z,32.42
2023-11-18T07:25:14.865Z,32.47
2023-11-18T07:27:44.839Z,32.54
2023-11-18T07:30:16.987Z,32.62
2023-11-18T07:32:46.574Z,32.69
2023-11-18T07:35:16.416Z,32.76
2023-11-18T07:37:46.527Z,32.86
2023-11-18T07:40:23.440Z,32.94
2023-11-18T07:42:54.052Z,33.01
2023-11-18T07:45:26.014Z,33.08
2023-11-18T07:47:55.846Z,33.14
2023-11-18T07:50:25.724Z,33.19
2023-11-18T07:52:55.871Z,33.21
2023-11-18T07:55:25.544Z,33.23
2023-11-18T07:57:55.493Z,33.26
2023-11-18T08:00:27.143Z,33.31
2023-11-18T08:02:57.144Z,33.35
2023-11-18T08:05:26.862Z,33.36
2023-11-18T08:07:56.615Z,33.38
2023-11-18T08:10:27.925Z,33.42
2023-11-18T08:12:57.650Z,33.45
2023-11-18T08:15:30.964Z,33.51
2023-11-18T08:18:01.033Z,33.54
2023-11-18T08:20:30.684Z,33.56
2023-11-18T08:23:00.799Z,33.57
2023-11-18T08:25:31.113Z,33.56
2023-11-18T08:28:02.165Z,33.54
2023-11-18T08:30:35.405Z,33.53
2023-11-18T08:33:10.463Z,33.51
2023-11-18T08:35:41.860Z,33.47
2023-11-18T08:38:13.993Z,33.46
2023-11-18T08:40:46.457Z,33.44
2023-11-18T08:43:18.153Z,33.41
2023-11-18T08:45:55.192Z,33.40
2023-11-18T08:48:25.492Z,33.36
2023-11-18T08:50:55.042Z,33.34
2023-11-18T08:53:27.842Z,33.31
2023-11-18T08:55:57.728Z,33.26
2023-11-18T08:58:30.994Z,33.25
2023-11-18T09:01:07.806Z,33.22
2023-11-18T09:03:38.340Z,33.19
2023-11-18T09:06:19.351Z,33.16
2023-11-18T09:08:54.721Z,33.13
2023-11-18T09:11:28.764Z,33.10
2023-11-18T09:14:02.607Z,33.08
2023-11-18T09:16:39.945Z,33.06
2023-11-18T09:19:09.726Z,33.05
2023-11-18T09:21:41.223Z,33.04
2023-11-18T09:24:14.271Z,33.04
2023-11-18T09:26:45.820Z,33.04
2023-11-18T09:29:19.978Z,33.05
2023-11-18T09:31:53.966Z,33.03
2023-11-18T09:34:34.843Z,33.03
2023-11-18T09:37:05.606Z,33.00
2023-11-18T09:39:40.366Z,32.99
2023-11-18T09:42:11.387Z,32.98
2023-11-18T09:47:31.696Z,32.98
2023-11-18T09:50:05.926Z,32.96
2023-11-18T09:52:39.240Z,32.94
2023-11-18T09:55:24.795Z,32.94
2023-11-18T09:58:05.618Z,32.91
2023-11-18T10:00:43.561Z,32.90
2023-11-18T10:03:17.610Z,32.88
2023-11-18T10:05:50.936Z,32.87
2023-11-18T10:08:25.391Z,32.86
2023-11-18T10:11:06.734Z,32.83
2023-11-18T10:13:42.169Z,32.81
2023-11-18T10:16:12.685Z,32.79
2023-11-18T10:18:50.656Z,32.78
2023-11-18T10:21:41.310Z,32.77
2023-11-18T10:24:15.897Z,32.75
2023-11-18T10:27:00.436Z,32.74
2023-11-18T10:29:32.104Z,32.71
2023-11-18T10:32:17.612Z,32.71
2023-11-18T10:34:51.080Z,32.69
2023-11-18T10:37:22.274Z,32.68
2023-11-18T10:39:53.417Z,32.66
2023-11-18T10:42:23.609Z,32.67
2023-11-18T10:45:00.692Z,32.67
2023-11-18T10:47:31.022Z,32.64
2023-11-18T10:50:02.797Z,32.64
2023-11-18T10:52:36.716Z,32.62
2023-11-18T10:55:13.733Z,32.61
2023-11-18T10:57:44.560Z,32.59
2023-11-18T11:00:16.679Z,32.59
2023-11-18T11:02:49.001Z,32.57
2023-11-18T11:05:34.540Z,32.57
2023-11-18T11:08:08.145Z,32.54
2023-11-18T11:10:43.250Z,32.53
2023-11-18T11:13:17.070Z,32.53
2023-11-18T11:15:57.738Z,32.51
2023-11-18T11:18:38.605Z,32.51
2023-11-18T11:21:18.146Z,32.49
2023-11-18T11:23:59.652Z,32.48
2023-11-18T11:26:58.900Z,32.48
2023-11-18T11:29:39.361Z,32.47
2023-11-18T11:32:29.582Z,32.47
2023-11-18T11:35:10.752Z,32.46
2023-11-18T11:37:43.938Z,32.47
2023-11-18T11:40:23.907Z,32.47
2023-11-18T11:42:56.821Z,32.46
2023-11-18T11:45:30.001Z,32.47
2023-11-18T11:48:18.656Z,32.45
2023-11-18T11:51:21.975Z,32.44
2023-11-18T11:54:06.270Z,32.43
2023-11-18T11:56:45.725Z,32.43
2023-11-18T11:59:18.236Z,32.43
2023-11-18T12:01:54.485Z,32.43
2023-11-18T12:04:30.254Z,32.43
2023-11-18T12:07:12.330Z,32.43
2023-11-18T12:09:53.049Z,32.41
2023-11-18T12:12:28.132Z,32.41
2023-11-18T12:15:13.589Z,32.40
2023-11-18T12:18:27.691Z,32.39
2023-11-18T12:20:57.763Z,32.38
2023-11-18T12:23:28.226Z,32.39
2023-11-18T12:26:00.155Z,32.40
2023-11-18T12:28:32.510Z,32.40
2023-11-18T12:31:18.507Z,32.42
2023-11-18T12:34:11.365Z,32.41
2023-11-18T12:37:40.217Z,32.38
2023-11-18T12:40:53.049Z,32.37
2023-11-18T12:43:54.139Z,32.36
2023-11-18T12:46:57.042Z,32.32
2023-11-18T12:49:29.915Z,32.28
2023-11-18T12:52:01.675Z,32.28
2023-11-18T12:54:33.381Z,32.28
2023-11-18T12:57:10.180Z,32.27
2023-11-18T12:59:43.195Z,32.25
2023-11-18T13:02:20.003Z,32.24
2023-11-18T13:04:51.378Z,32.22
2023-11-18T13:07:23.249Z,32.22
2023-11-18T13:09:55.898Z,32.20
2023-11-18T13:12:35.164Z,32.20
2023-11-18T13:15:11.449Z,32.19
2023-11-18T13:17:42.802Z,32.17
2023-11-18T13:20:16.828Z,32.16
2023-11-18T13:22:48.632Z,32.15
2023-11-18T13:25:19.223Z,32.14
2023-11-18T13:27:49.837Z,32.14
2023-11-18T13:30:22.265Z,32.12
2023-11-18T13:32:52.295Z,32.10
2023-11-18T13:35:25.158Z,32.09
2023-11-18T13:37:55.477Z,32.07
2023-11-18T13:40:25.473Z,32.04
2023-11-18T13:43:06.728Z,32.04
2023-11-18T13:45:38.846Z,32.01
2023-11-18T13:48:10.314Z,31.99
2023-11-18T13:50:40.252Z,31.98
2023-11-18T13:53:12.461Z,31.96
2023-11-18T13:55:43.606Z,31.95
2023-11-18T13:58:13.803Z,31.93
2023-11-18T14:00:52.778Z,31.91
2023-11-18T14:03:24.938Z,31.87
2023-11-18T14:05:56.980Z,31.86
2023-11-18T14:08:26.776Z,31.85
2023-11-18T14:11:02.861Z,31.84
2023-11-18T14:13:36.364Z,31.81
2023-11-18T14:16:11.326Z,31.81
2023-11-18T14:18:43.407Z,31.78
2023-11-18T14:21:15.763Z,31.75
2023-11-18T14:23:46.043Z,31.73
2023-11-18T14:26:16.038Z,31.71
2023-11-18T14:28:46.067Z,31.68
2023-11-18T14:31:30.392Z,31.67
2023-11-18T14:34:00.385Z,31.63
2023-11-18T14:36:30.164Z,31.60
2023-11-18T14:39:01.071Z,31.57
2023-11-18T14:41:32.467Z,31.55
2023-11-18T14:44:04.042Z,31.54
2023-11-18T14:46:35.737Z,31.54
2023-11-18T14:49:07.319Z,31.55
2023-11-18T14:51:39.909Z,31.54
2023-11-18T14:54:10.307Z,31.53
2023-11-18T14:56:39.997Z,31.52
2023-11-18T14:59:09.746Z,31.51
2023-11-18T15:01:45.677Z,31.52
2023-11-18T15:04:15.864Z,31.50
2023-11-18T15:06:45.530Z,31.50
2023-11-18T15:09:16.031Z,31.49
2023-11-18T15:11:47.015Z,31.49
2023-11-18T15:14:16.763Z,31.49
2023-11-18T15:16:48.828Z,31.49
2023-11-18T15:19:19.312Z,31.48
2023-11-18T15:21:50.584Z,31.47
2023-11-18T15:24:22.497Z,31.47
2023-11-18T15:26:52.936Z,31.46
2023-11-18T15:29:22.567Z,31.45
2023-11-18T15:31:56.587Z,31.45
2023-11-18T15:34:26.642Z,31.44
2023-11-18T15:36:56.252Z,31.42
2023-11-18T15:39:26.472Z,31.41
2023-11-18T15:41:56.303Z,31.42
2023-11-18T15:44:26.139Z,31.41
2023-11-18T15:47:27.667Z,31.41
2023-11-18T15:49:57.571Z,31.38
2023-11-18T15:52:27.676Z,31.38
2023-11-18T15:54:57.182Z,31.38
2023-11-18T15:57:26.998Z,31.38
2023-11-18T15:59:56.618Z,31.37
2023-11-18T16:02:30.142Z,31.39
2023-11-18T16:04:59.771Z,31.37
2023-11-18T16:07:29.270Z,31.37
2023-11-18T16:10:00.838Z,31.37
2023-11-18T16:12:30.353Z,31.36
2023-11-18T16:15:00.418Z,31.35
2023-11-18T16:17:47.530Z,31.36
2023-11-18T16:20:18.971Z,31.34
2023-11-18T16:22:50.870Z,31.32
2023-11-18T16:25:22.782Z,31.31
2023-11-18T16:27:53.977Z,31.31
2023-11-18T16:30:26.336Z,31.30
2023-11-18T16:32:59.274Z,31.30
2023-11-18T16:35:31.120Z,31.29
2023-11-18T16:38:02.394Z,31.28
2023-11-18T16:40:34.651Z,31.26
2023-11-18T16:43:04.340Z,31.25
2023-11-18T16:45:33.913Z,31.23
2023-11-18T16:48:05.985Z,31.22
2023-11-18T16:50:37.726Z,31.21
2023-11-18T16:53:07.994Z,31.19
2023-11-18T16:55:37.574Z,31.18
2023-11-18T16:58:07.121Z,31.17
2023-11-18T17:00:38.567Z,31.15
2023-11-18T17:03:11.289Z,31.14
2023-11-18T17:05:46.178Z,31.13
2023-11-18T17:08:16.060Z,31.10
2023-11-18T17:10:51.108Z,31.09
2023-11-18T17:13:20.982Z,31.08
2023-11-18T17:15:51.747Z,31.07
2023-11-18T17:18:22.926Z,31.07
2023-11-18T17:21:04.652Z,31.06
2023-11-18T17:23:34.892Z,31.04
2023-11-18T17:26:06.787Z,31.02
2023-11-18T17:28:36.391Z,31.01
2023-11-18T17:31:07.931Z,31.00
2023-11-18T17:33:39.608Z,30.98
2023-11-18T17:36:10.204Z,30.95
2023-11-18T17:38:39.853Z,30.91
2023-11-18T17:41:09.922Z,30.88
2023-11-18T17:43:39.550Z,30.84
2023-11-18T17:46:12.147Z,30.82
2023-11-18T17:48:43.927Z,30.79
2023-11-18T17:51:14.037Z,30.75
2023-11-18T17:53:43.559Z,30.72
2023-11-18T17:56:14.222Z,30.69
2023-11-18T17:58:43.878Z,30.65
2023-11-18T18:01:13.399Z,30.64
2023-11-18T18:03:45.491Z,30.59
2023-11-18T18:06:16.574Z,30.57
2023-11-18T18:08:46.107Z,30.54
2023-11-18T18:11:15.885Z,30.51
2023-11-18T18:13:45.775Z,30.47
2023-11-18T18:16:16.097Z,30.45
2023-11-18T18:18:47.848Z,30.42
2023-11-18T18:21:17.783Z,30.41
2023-11-18T18:23:47.513Z,30.38
2023-11-18T18:26:17.301Z,30.36
2023-11-18T18:28:49.934Z,30.34
2023-11-18T18:31:19.566Z,30.30
2023-11-18T18:33:59.819Z,30.29
2023-11-18T18:36:29.913Z,30.26
2023-11-18T18:38:59.610Z,30.24
2023-11-18T18:41:29.408Z,30.22
2023-11-18T18:43:59.101Z,30.20
2023-11-18T18:46:28.774Z,30.18
2023-11-18T18:49:00.409Z,30.16
2023-11-18T18:51:30.118Z,30.13
2023-11-18T18:53:59.595Z,30.11
2023-11-18T18:56:30.486Z,30.09
2023-11-18T18:59:00.259Z,30.06
2023-11-18T19:01:29.882Z,30.03
2023-11-18T19:04:01.257Z,30.02
2023-11-18T19:06:33.580Z,29.99
2023-11-18T19:09:03.387Z,29.98
2023-11-18T19:11:32.967Z,29.96
2023-11-18T19:14:02.829Z,29.95
2023-11-18T19:16:33.676Z,29.94
2023-11-18T19:19:05.756Z,29.93
2023-11-18T19:21:35.284Z,29.90
2023-11-18T19:24:04.922Z,29.89
2023-11-18T19:26:37.679Z,29.88
2023-11-18T19:29:07.401Z,29.87
2023-11-18T19:31:37.142Z,29.87
2023-11-18T19:34:08.986Z,29.87
2023-11-18T19:36:38.631Z,29.86
2023-11-18T19:39:09.439Z,29.85
2023-11-18T19:41:39.474Z,29.85
2023-11-18T19:44:09.055Z,29.84
2023-11-18T19:46:38.639Z,29.83
2023-11-18T19:49:11.315Z,29.83
2023-11-18T19:51:40.972Z,29.82
2023-11-18T19:54:11.275Z,29.81
2023-11-18T19:56:40.989Z,29.81
2023-11-18T19:59:10.468Z,29.80
2023-11-18T20:01:40.108Z,29.78
2023-11-18T20:04:13.355Z,29.76
2023-11-18T20:06:42.865Z,29.74
2023-11-18T20:09:13.555Z,29.73
2023-11-18T20:11:51.799Z,29.72
2023-11-18T20:14:21.706Z,29.70
2023-11-18T20:16:51.713Z,29.69
2023-11-18T20:19:23.735Z,29.68
2023-11-18T20:21:53.353Z,29.67
2023-11-18T20:24:22.942Z,29.65
2023-11-18T20:26:52.517Z,29.64
2023-11-18T20:29:22.094Z,29.62
2023-11-18T20:31:51.526Z,29.62
2023-11-18T20:34:23.540Z,29.60
2023-11-18T20:36:53.308Z,29.59
2023-11-18T20:39:23.546Z,29.58
2023-11-18T20:41:53.917Z,29.56
2023-11-18T20:44:24.744Z,29.56
2023-11-18T20:46:54.547Z,29.55
2023-11-18T20:49:26.619Z,29.54
2023-11-18T20:51:56.111Z,29.52
2023-11-18T20:54:25.656Z,29.51
2023-11-18T20:56:55.143Z,29.49
2023-11-18T20:59:25.060Z,29.47
2023-11-18T21:01:54.629Z,29.45
2023-11-18T21:04:26.301Z,29.43
2023-11-18T21:06:56.505Z,29.43
2023-11-18T21:09:26.925Z,29.41
2023-11-18T21:12:17.183Z,29.40
2023-11-18T21:14:50.962Z,29.39
2023-11-18T21:17:26.500Z,29.37
2023-11-18T21:19:58.024Z,29.35
2023-11-18T21:22:27.503Z,29.35
2023-11-18T21:24:58.081Z,29.34
2023-11-18T21:27:27.953Z,29.31
2023-11-18T21:29:57.440Z,29.30
2023-11-18T21:32:26.935Z,29.27
2023-11-18T21:34:58.455Z,29.24
2023-11-18T21:37:28.024Z,29.22
2023-11-18T21:39:59.037Z,29.19
2023-11-18T21:42:30.418Z,29.18
2023-11-18T21:45:00.162Z,29.17
2023-11-18T21:47:29.924Z,29.16
2023-11-18T21:50:02.030Z,29.15
2023-11-18T21:52:31.686Z,29.13
2023-11-18T21:55:01.286Z,29.10
2023-11-18T21:57:30.886Z,29.09
2023-11-18T22:00:00.370Z,29.07
2023-11-18T22:02:30.215Z,29.06
2023-11-18T22:05:01.389Z,29.05
2023-11-18T22:07:30.829Z,29.03
2023-11-18T22:10:00.617Z,29.00
2023-11-18T22:12:31.887Z,28.98
2023-11-18T22:15:01.729Z,28.96
2023-11-18T22:17:31.304Z,28.95
2023-11-18T22:20:02.848Z,28.94
2023-11-18T22:22:34.677Z,28.91
2023-11-18T22:25:04.389Z,28.90
2023-11-18T22:27:35.434Z,28.90
2023-11-18T22:30:07.393Z,28.88
2023-11-18T22:32:39.203Z,28.86
2023-11-18T22:35:12.090Z,28.85
2023-11-18T22:37:41.685Z,28.84
2023-11-18T22:40:16.981Z,28.84
2023-11-18T22:42:48.408Z,28.85
2023-11-18T22:45:21.328Z,28.85
2023-11-18T22:47:52.772Z,28.86
2023-11-18T22:50:25.079Z,28.86
2023-11-18T22:52:59.132Z,28.86
2023-11-18T22:55:28.959Z,28.86
2023-11-18T22:57:59.240Z,28.86
2023-11-18T23:00:51.687Z,28.87
2023-11-18T23:03:21.588Z,28.87
2023-11-18T23:05:54.461Z,28.88
2023-11-18T23:08:24.120Z,28.89
2023-11-18T23:10:54.044Z,28.90
2023-11-18T23:13:24.566Z,28.90
2023-11-18T23:15:57.374Z,28.89
2023-11-18T23:18:27.505Z,28.88
2023-11-18T23:20:59.223Z,28.88
2023-11-18T23:23:29.049Z,28.88
2023-11-18T23:25:58.794Z,28.87
2023-11-18T23:28:28.351Z,28.88
2023-11-18T23:30:58.693Z,28.89
2023-11-18T23:33:29.189Z,28.88
2023-11-18T23:35:59.717Z,28.89
2023-11-18T23:38:29.400Z,28.89
2023-11-18T23:40:59.259Z,28.90
2023-11-18T23:43:30.171Z,28.90
2023-11-18T23:46:00.114Z,28.91
2023-11-18T23:48:30.689Z,28.91
2023-11-18T23:51:02.775Z,28.90
2023-11-18T23:53:32.677Z,28.88
2023-11-18T23:56:02.832Z,28.88
2023-11-18T23:58:34.020Z,28.86
